CheckWX is a tool to help pilots better visualize weather data.  It is not intended as a substitute for an official pre-flight weather briefing.

18:02:04 UTC

LFMO TAF
Orange-Caritat (BA 115) Air Base Airport
Orange/Caritat, France
TAF LFMO 241400Z 2415/2515 15020G30KT 9999 BKN045 PROB30 TEMPO 2415/2418 4000 SHRA BKN030TCU PROB30 TEMPO 2512/2515 4000 SHRA BKN040TCU

Apr-24@
15:00 UTC

Apr-24 @ 15:00 UTC

Apr-25@
15:00 UTC

Apr-25 @ 15:00 UTC

TAF LFMO 241400Z 2415/2515 15020G30KT 9999 BKN045
Wind
  • 150° at 20 KTS
  • {Gusting to 30 KTS
Cloud Levels
  • Broken at 4,500' AGL

Apr-24@
15:00 UTC

Apr-24 @ 15:00 UTC

Apr-24@
18:00 UTC

Apr-24 @ 18:00 UTC

PROB30 TEMPO 2415/2418 4000 SHRA BKN030TCU

Expired

Conditions
Rain
Cloud Levels
  • Broken at 3,000' AGL

Apr-25@
12:00 UTC

Apr-25 @ 12:00 UTC

Apr-25@
15:00 UTC

Apr-25 @ 15:00 UTC

PROB30 TEMPO 2512/2515 4000 SHRA BKN040TCU

Temporary - 30% Likelihood

Temporary - 30% Likelihood during this time.

Conditions
Rain
Cloud Levels
  • Broken at 4,000' AGL